McKenney, Virginia
Current Conditions -  °F | °C
As of 7:15 AM on Monday 26 Jan 2015 (Local Time) from KBKT Reporting Station
Overcast Overcast  
Wind Chill: 31°   Ceiling: 3800
Heat Index: 37°   Visibility: 7mi
Dew Point: 37°   Wind: 8mph
Humidity: 98%   Direction: 90°E
Pressure: 29.7"   Gusts: NA
Location:  36.99°N, 77.72°W
Report Text: KBKT 261215Z AUTO 09007KT 7SM OVC038 03/03 A2970 RMK AO1 P0001 T00280025
Loading
Personal Weather Stations






























Interactive Weather Map New forecast layout! Learn more

10-Day Weather Forecast

Advertisements
Track Severe Weather on mobile